Time;durP1;ratioP1;P1;durP2;ratioP2;P2;SDS_P1;SDS_P2;PMS_P1;PMS_P2;Temp;Humidity;BMP_temperature;BMP_pressure;BME280_temperature;BME280_humidity;BME280_pressure;Samples;Min_cycle;Max_cycle;Signal;HPM_P1;HPM_P2
2023/03/06 00:02:38;;;;;;;;;;;6.90;51.10;;;5.18;54.01;100207.41;12260726;19;19926;-86
2023/03/06 00:06:40;;;;;;;;;;;6.70;51.00;;;4.96;53.89;100167.78;12264631;19;20373;-85
2023/03/06 00:10:41;;;;;;;;;;;6.70;51.00;;;5.19;54.10;100196.16;12263315;19;19941;-85
2023/03/06 00:14:43;;;;;;;;;;;6.80;51.10;;;5.20;54.06;100192.66;12258618;19;19974;-85
2023/03/06 00:18:46;;;;;;;;;;;6.80;51.10;;;5.19;54.13;100190.16;12259288;19;19919;-85
2023/03/06 00:22:48;;;;;;;;;;;6.80;51.10;;;5.19;54.12;100190.97;12258868;19;19915;-85
2023/03/06 00:26:50;;;;;;;;;;;6.90;51.10;;;5.04;54.12;100163.16;12261723;19;19918;-85
2023/03/06 00:30:51;;;;;;;;;;;6.70;51.10;;;5.00;54.13;100151.25;12261192;19;19919;-85
2023/03/06 00:34:53;;;;;;;;;;;6.90;51.20;;;5.07;54.21;100165.59;12258168;19;19942;-84
2023/03/06 00:38:55;;;;;;;;;;;6.70;51.10;;;5.06;54.06;100156.16;12256403;19;20578;-84
2023/03/06 00:42:59;;;;;;;;;;;6.70;51.10;;;4.98;53.94;100140.94;12256587;19;19918;-84
2023/03/06 00:47:00;;;;;;;;;;;6.70;51.10;;;4.73;54.12;100085.97;12257905;19;20257;-84
2023/03/06 00:51:02;;;;;;;;;;;6.70;51.10;;;5.01;54.25;100125.28;12255263;19;20306;-84
2023/03/06 00:55:04;;;;;;;;;;;6.70;51.20;;;5.01;54.17;100111.53;12253577;19;19919;-84
2023/03/06 00:59:06;;;;;;;;;;;6.70;51.20;;;4.97;53.98;100128.06;12253114;19;19926;-84
2023/03/06 01:03:08;;;;;;;;;;;6.60;51.10;;;4.97;53.96;100128.94;12254141;19;19926;-84
2023/03/06 01:07:09;;;;;;;;;;;6.60;51.20;;;4.91;54.13;100103.28;12253066;19;19946;-84
2023/03/06 01:11:11;;;;;;;;;;;6.60;51.20;;;4.94;54.06;100102.31;12256059;19;19914;-84
2023/03/06 01:15:13;;;;;;;;;;;6.50;51.30;;;4.90;54.00;100090.44;12251750;19;19914;-84
2023/03/06 01:19:15;;;;;;;;;;;6.50;51.30;;;4.82;54.09;100068.31;12252897;19;19927;-84
2023/03/06 01:23:17;;;;;;;;;;;6.50;51.20;;;4.87;54.25;100079.31;12251382;19;19970;-84
2023/03/06 01:27:18;;;;;;;;;;;6.60;51.30;;;4.86;54.14;100076.78;12255008;19;19915;-85
2023/03/06 01:31:20;;;;;;;;;;;6.40;51.30;;;4.86;54.06;100084.53;12251495;19;19927;-85
2023/03/06 01:35:21;;;;;;;;;;;6.40;51.40;;;4.82;54.23;100055.38;12244246;19;19955;-84
2023/03/06 01:39:23;;;;;;;;;;;6.40;51.40;;;4.67;54.05;100035.31;12249082;19;19919;-84
2023/03/06 01:43:27;;;;;;;;;;;6.40;51.40;;;4.88;54.24;100057.69;12248346;19;19919;-85
2023/03/06 01:47:29;;;;;;;;;;;6.40;51.40;;;4.87;54.31;100050.84;12253626;19;19935;-84
2023/03/06 01:51:36;;;;;;;;;;;6.60;51.50;;;4.88;54.16;100042.19;12252997;19;19915;-85
2023/03/06 01:55:38;;;;;;;;;;;6.40;51.50;;;4.65;54.18;99994.03;12251522;19;19923;-84
2023/03/06 01:59:41;;;;;;;;;;;6.40;51.50;;;4.80;54.31;100008.03;12248053;19;20264;-84
2023/03/06 02:03:44;;;;;;;;;;;6.40;51.50;;;4.73;54.15;99991.13;12247220;19;19925;-84
2023/03/06 02:07:46;;;;;;;;;;;6.50;51.50;;;4.80;54.48;100002.03;12248404;19;19915;-84
2023/03/06 02:11:48;;;;;;;;;;;6.40;51.50;;;4.65;54.11;99969.94;12247881;19;20257;-84
2023/03/06 02:15:49;;;;;;;;;;;6.40;51.50;;;4.84;54.33;99993.25;12249171;19;20265;-84
2023/03/06 02:20:25;;;;;;;;;;;6.40;51.60;;;4.85;54.35;100002.69;12246625;19;19937;-84
2023/03/06 02:24:44;;;;;;;;;;;6.40;51.60;;;4.80;54.25;99989.94;12242405;19;19918;-84
2023/03/06 02:28:46;;;;;;;;;;;6.30;51.70;;;4.78;54.38;99980.56;12260103;19;19911;-85
2023/03/06 02:32:47;;;;;;;;;;;6.40;51.70;;;4.75;54.43;99986.72;12259065;19;19918;-85
2023/03/06 02:37:01;;;;;;;;;;;6.30;51.70;;;4.59;54.35;99958.09;12260748;19;19914;-85
2023/03/06 02:41:06;;;;;;;;;;;6.30;51.70;;;4.61;54.29;99950.25;12257094;19;19927;-85
2023/03/06 02:45:11;;;;;;;;;;;6.30;51.80;;;4.70;54.51;99970.56;12254378;19;20566;-85
2023/03/06 02:49:13;;;;;;;;;;;6.30;51.90;;;4.70;54.33;99975.75;12268395;19;19915;-84
2023/03/06 02:53:16;;;;;;;;;;;6.30;51.90;;;4.64;54.47;99965.66;12266099;19;19926;-85
2023/03/06 02:57:18;;;;;;;;;;;6.20;51.90;;;4.60;54.35;99957.19;12264525;19;19915;-85
2023/03/06 03:01:20;;;;;;;;;;;6.60;52.00;;;4.70;54.37;99973.16;12262734;19;19947;-85
2023/03/06 03:05:22;;;;;;;;;;;6.30;52.10;;;4.71;54.40;99954.13;12258345;19;19915;-85
2023/03/06 03:09:35;;;;;;;;;;;6.20;52.00;;;4.66;54.40;99950.91;12260064;19;19922;-85
2023/03/06 03:13:37;;;;;;;;;;;6.30;52.10;;;4.56;54.59;99927.19;12259522;19;20636;-85
2023/03/06 03:17:40;;;;;;;;;;;6.30;52.10;;;4.49;54.49;99906.88;12258319;19;20005;-85
2023/03/06 03:21:42;;;;;;;;;;;6.30;52.10;;;4.73;54.63;99949.75;12259432;19;19915;-85
2023/03/06 03:25:44;;;;;;;;;;;6.50;52.50;;;4.70;54.41;99936.94;12257388;19;19923;-84
2023/03/06 03:29:47;;;;;;;;;;;6.30;52.30;;;4.44;54.59;99887.19;12259490;19;19911;-85
2023/03/06 03:33:48;;;;;;;;;;;6.30;52.20;;;4.73;54.43;99934.22;12256617;19;19949;-84
2023/03/06 03:37:51;;;;;;;;;;;6.30;52.30;;;4.67;54.48;99916.38;12257358;19;19918;-84
2023/03/06 03:41:53;;;;;;;;;;;6.40;52.40;;;4.75;54.55;99929.84;12256871;19;19930;-85
2023/03/06 03:45:55;;;;;;;;;;;6.40;52.40;;;4.81;54.70;99934.72;12255545;19;19975;-84
2023/03/06 03:49:58;;;;;;;;;;;6.40;52.60;;;4.56;54.74;99888.41;12256404;19;19934;-84
2023/03/06 03:54:00;;;;;;;;;;;6.40;52.50;;;4.75;54.54;99910.88;12253588;19;19926;-85
2023/03/06 03:58:05;;;;;;;;;;;6.50;52.50;;;4.82;54.73;99913.13;12251706;19;19942;-85
2023/03/06 04:02:08;;;;;;;;;;;6.50;52.50;;;4.91;54.62;99919.63;12253953;19;19986;-85
2023/03/06 04:06:17;;;;;;;;;;;6.50;52.50;;;4.86;54.80;99911.22;12253827;19;19950;-85
2023/03/06 04:10:20;;;;;;;;;;;6.50;52.50;;;4.60;54.73;99861.53;12253742;19;19915;-85
2023/03/06 04:14:23;;;;;;;;;;;6.50;52.40;;;4.97;54.85;99918.50;12248932;19;20283;-85
2023/03/06 04:18:25;;;;;;;;;;;6.50;52.40;;;4.96;54.86;99911.66;12251193;19;19918;-85
2023/03/06 04:22:31;;;;;;;;;;;6.50;52.30;;;4.96;54.84;99907.31;12252399;19;19919;-85
2023/03/06 04:26:33;;;;;;;;;;;6.70;52.40;;;4.90;54.85;99909.38;12255190;19;19914;-85
2023/03/06 04:30:35;;;;;;;;;;;6.60;52.30;;;4.94;54.91;99910.88;12252864;19;19914;-85
2023/03/06 04:34:37;;;;;;;;;;;6.60;52.50;;;4.85;54.67;99894.03;12250472;19;19919;-85
2023/03/06 04:38:39;;;;;;;;;;;6.60;52.40;;;4.88;54.83;99902.50;12251231;19;19919;-86
2023/03/06 04:42:41;;;;;;;;;;;6.60;52.50;;;4.99;54.85;99925.28;12248961;19;19938;-85
2023/03/06 04:46:42;;;;;;;;;;;6.60;52.70;;;4.74;54.99;99884.16;12252847;19;19974;-86
2023/03/06 04:50:44;;;;;;;;;;;6.60;52.60;;;4.90;54.88;99919.72;12252788;19;19915;-85
2023/03/06 04:54:45;;;;;;;;;;;6.60;52.50;;;4.90;54.73;99920.53;12247489;19;20732;-85
2023/03/06 04:58:47;;;;;;;;;;;6.80;52.70;;;5.01;54.92;99944.19;12245956;19;19915;-85
2023/03/06 05:02:49;;;;;;;;;;;6.60;52.60;;;4.91;54.72;99921.38;12248864;19;20385;-85
2023/03/06 05:06:51;;;;;;;;;;;6.60;52.50;;;5.01;54.86;99939.00;12251827;19;20263;-85
2023/03/06 05:10:55;;;;;;;;;;;6.60;52.50;;;4.99;54.92;99924.47;12254287;19;20264;-85
2023/03/06 05:14:57;;;;;;;;;;;6.60;52.50;;;5.08;54.95;99943.00;12256077;19;19943;-86
2023/03/06 05:18:59;;;;;;;;;;;6.70;52.60;;;5.10;55.00;99937.75;12256666;19;20365;-86
2023/03/06 05:23:00;;;;;;;;;;;6.70;52.50;;;5.08;54.74;99950.78;12254253;19;20337;-86
2023/03/06 05:27:02;;;;;;;;;;;6.60;52.30;;;5.10;54.78;99958.44;12251651;19;19922;-85
2023/03/06 05:31:04;;;;;;;;;;;6.70;52.40;;;5.09;54.78;99955.03;12252387;19;19939;-86
2023/03/06 05:35:06;;;;;;;;;;;6.70;52.40;;;5.02;55.01;99942.44;12249189;19;19918;-85
2023/03/06 05:39:07;;;;;;;;;;;6.70;52.40;;;5.06;54.91;99956.91;12251162;19;19923;-86
2023/03/06 05:43:10;;;;;;;;;;;6.70;52.30;;;5.10;54.73;99958.44;12248386;19;19935;-85
2023/03/06 05:47:12;;;;;;;;;;;6.70;52.30;;;5.09;54.92;99967.13;12253581;19;19915;-85
2023/03/06 05:51:14;;;;;;;;;;;6.70;52.30;;;5.05;54.94;99956.09;12252670;19;20321;-85
2023/03/06 05:55:18;;;;;;;;;;;6.70;52.30;;;4.96;54.98;99951.31;12249591;19;19915;-85
2023/03/06 05:59:20;;;;;;;;;;;6.60;52.60;;;5.03;54.73;99962.22;12249456;19;19911;-85
2023/03/06 06:03:22;;;;;;;;;;;6.60;52.30;;;4.99;54.80;99966.69;12250460;19;19917;-85
2023/03/06 06:07:23;;;;;;;;;;;6.70;52.20;;;5.02;54.80;99966.56;12252333;19;20265;-85
2023/03/06 06:11:25;;;;;;;;;;;6.80;52.30;;;4.94;54.97;99962.63;12250945;19;19922;-86
2023/03/06 06:15:27;;;;;;;;;;;6.60;52.20;;;4.99;54.83;99982.22;12246104;19;19927;-85
2023/03/06 06:19:29;;;;;;;;;;;6.50;52.20;;;4.72;55.03;99942.03;12247368;19;19915;-85
2023/03/06 06:23:31;;;;;;;;;;;6.50;52.20;;;5.00;54.88;99978.72;12256691;19;20336;-85
2023/03/06 06:27:32;;;;;;;;;;;6.50;52.20;;;4.66;54.93;99932.81;12262215;19;19915;-85
2023/03/06 06:31:35;;;;;;;;;;;6.60;52.30;;;4.91;55.03;99975.69;12261539;19;19919;-85
2023/03/06 06:35:37;;;;;;;;;;;6.50;52.20;;;4.86;54.88;99976.75;12259574;19;19992;-85
2023/03/06 06:39:39;;;;;;;;;;;6.50;52.20;;;4.88;55.01;99985.28;12258555;19;19928;-85
2023/03/06 06:43:41;;;;;;;;;;;6.70;52.30;;;4.92;54.82;99995.50;12256714;19;19931;-85
2023/03/06 06:47:43;;;;;;;;;;;6.40;52.20;;;4.79;55.03;99974.50;12258946;19;19939;-85
2023/03/06 06:51:45;;;;;;;;;;;6.40;52.20;;;4.75;54.83;99970.34;12259253;19;19926;-85
2023/03/06 06:55:46;;;;;;;;;;;6.40;52.20;;;4.70;55.02;99965.41;12259215;19;19928;-86
2023/03/06 06:59:48;;;;;;;;;;;6.40;52.20;;;4.81;55.11;99991.63;12251630;19;19918;-85
2023/03/06 07:03:50;;;;;;;;;;;6.70;52.30;;;4.85;55.06;99984.56;12251215;19;19926;-85
2023/03/06 07:07:51;;;;;;;;;;;6.40;52.30;;;4.88;54.91;99987.03;12254994;19;20282;-84
2023/03/06 07:11:53;;;;;;;;;;;6.40;52.30;;;4.87;55.04;99983.59;12255164;19;19911;-85
2023/03/06 07:15:55;;;;;;;;;;;6.40;52.30;;;4.91;55.04;99988.63;12254408;19;20262;-84
2023/03/06 07:19:56;;;;;;;;;;;6.50;52.20;;;4.93;55.09;99997.19;12253977;19;20321;-88
2023/03/06 07:23:58;;;;;;;;;;;6.40;52.20;;;4.75;54.97;99962.59;12252304;19;19986;-84
2023/03/06 07:28:00;;;;;;;;;;;6.50;52.30;;;4.93;54.95;99992.84;12253982;19;20535;-84
2023/03/06 07:32:02;;;;;;;;;;;6.50;52.30;;;4.93;55.13;99994.59;12251632;19;20328;-84
2023/03/06 07:36:07;;;;;;;;;;;6.50;52.30;;;4.90;54.96;99992.97;12253282;19;19918;-85
2023/03/06 07:40:11;;;;;;;;;;;6.50;52.30;;;4.81;55.15;99980.44;12249619;19;19943;-85
2023/03/06 07:44:12;;;;;;;;;;;6.50;52.30;;;4.94;55.08;100006.59;12250807;19;19921;-84
2023/03/06 07:48:14;;;;;;;;;;;6.50;52.30;;;4.94;55.12;100006.59;12252939;19;20258;-85
2023/03/06 07:52:16;;;;;;;;;;;6.50;52.30;;;4.77;54.91;99977.13;12251257;19;19914;-84
2023/03/06 07:56:18;;;;;;;;;;;6.50;52.30;;;4.68;55.01;99961.19;12251369;19;19932;-84
2023/03/06 08:00:20;;;;;;;;;;;6.50;52.30;;;4.91;55.16;99998.97;12249723;19;20007;-85
2023/03/06 08:04:21;;;;;;;;;;;6.50;52.30;;;4.72;55.13;99971.31;12249543;19;20253;-85
2023/03/06 08:08:23;;;;;;;;;;;6.50;52.30;;;4.99;55.04;100015.00;12253550;19;19919;-85
2023/03/06 08:12:24;;;;;;;;;;;6.70;52.40;;;4.84;54.94;99988.91;12249581;19;19919;-85
2023/03/06 08:16:28;;;;;;;;;;;6.60;52.30;;;4.67;55.03;99957.75;12250254;19;20364;-85
2023/03/06 08:20:30;;;;;;;;;;;6.50;52.30;;;4.85;55.30;99985.41;12242492;19;20291;-85
2023/03/06 08:24:33;;;;;;;;;;;6.60;52.30;;;5.03;55.20;100013.97;12249234;19;19943;-85
2023/03/06 08:28:34;;;;;;;;;;;6.60;52.40;;;5.01;55.01;100011.44;12251963;19;20399;-85
2023/03/06 08:32:36;;;;;;;;;;;6.60;52.30;;;4.96;55.08;100005.63;12249136;19;20350;-85
2023/03/06 08:36:38;;;;;;;;;;;6.60;52.30;;;4.99;55.25;100012.44;12251725;19;19931;-85
2023/03/06 08:40:39;;;;;;;;;;;6.50;52.30;;;4.95;55.03;100000.53;12247801;19;19929;-86
2023/03/06 08:44:41;;;;;;;;;;;6.60;52.30;;;4.90;55.07;99998.16;12243634;19;19932;-85
2023/03/06 08:48:43;;;;;;;;;;;6.50;52.30;;;4.97;55.27;100011.66;12248928;19;20259;-84
2023/03/06 08:52:44;;;;;;;;;;;6.60;52.30;;;4.99;55.11;100015.00;12248280;19;20606;-85
2023/03/06 08:56:46;;;;;;;;;;;6.60;52.30;;;4.87;55.34;99993.94;12251097;19;19926;-85
2023/03/06 09:00:47;;;;;;;;;;;6.60;52.30;;;5.04;55.23;100026.00;12246948;19;19907;-85
2023/03/06 09:04:49;;;;;;;;;;;6.60;52.40;;;4.87;55.17;99993.13;12246092;19;19929;-85
2023/03/06 09:08:52;;;;;;;;;;;6.60;52.30;;;4.95;55.11;100011.72;12248162;19;19910;-85
2023/03/06 09:12:53;;;;;;;;;;;6.60;52.30;;;4.78;55.28;99983.16;12244918;19;19915;-85
2023/03/06 09:16:55;;;;;;;;;;;6.60;52.40;;;5.04;55.07;100039.78;12247532;19;20267;-84
2023/03/06 09:20:56;;;;;;;;;;;6.70;52.30;;;4.72;55.29;99992.00;12250583;19;19927;-85
2023/03/06 09:24:58;;;;;;;;;;;6.60;52.30;;;4.92;55.17;100024.81;12245579;19;19923;-85
2023/03/06 09:29:00;;;;;;;;;;;6.60;52.30;;;4.96;55.32;100020.31;12250271;19;19939;-84
2023/03/06 09:33:01;;;;;;;;;;;6.60;52.30;;;4.92;55.34;100016.22;12247157;19;19915;-85
2023/03/06 09:37:03;;;;;;;;;;;6.70;52.40;;;5.00;55.11;100025.31;12250417;19;20361;-84
2023/03/06 09:41:14;;;;;;;;;;;6.60;52.30;;;4.95;55.37;100010.91;12250059;19;19924;-85
2023/03/06 09:45:16;;;;;;;;;;;6.60;52.30;;;4.97;55.14;100017.69;12244082;19;19927;-86
2023/03/06 09:49:46;;;;;;;;;;;6.60;52.30;;;5.01;55.39;100020.97;12248111;19;19922;-85
2023/03/06 09:54:09;;;;;;;;;;;6.60;52.30;;;4.97;55.33;100017.69;12244006;19;19943;-85
2023/03/06 09:58:21;;;;;;;;;;;6.60;52.30;;;5.00;55.18;100020.13;12256076;19;19911;-85
2023/03/06 10:02:47;;;;;;;;;;;6.60;52.30;;;5.05;55.17;100040.59;12256165;19;19915;-86
2023/03/06 10:06:51;;;;;;;;;;;6.60;52.30;;;4.98;55.24;100026.28;12256996;19;19926;-86
2023/03/06 10:10:58;;;;;;;;;;;6.60;52.30;;;5.03;55.40;100034.69;12257710;19;19970;-84
2023/03/06 10:15:27;;;;;;;;;;;6.90;52.50;;;5.07;55.21;100039.63;12253517;19;19978;-85
2023/03/06 10:19:34;;;;;;;;;;;6.60;52.30;;;5.00;55.43;100019.28;12253246;19;19919;-85
2023/03/06 10:23:53;;;;;;;;;;;6.60;52.30;;;5.05;55.37;100031.13;12257970;19;20346;-85
2023/03/06 10:28:02;;;;;;;;;;;6.60;52.20;;;4.98;55.35;100021.09;12256277;19;19923;-84
2023/03/06 10:32:11;;;;;;;;;;;6.60;52.20;;;4.96;55.39;100017.72;12256223;19;19919;-84
2023/03/06 10:36:18;;;;;;;;;;;6.60;52.20;;;4.71;55.38;99987.75;12257089;19;19918;-85
2023/03/06 10:40:21;;;;;;;;;;;6.60;52.20;;;4.97;55.35;100040.09;12255263;19;19927;-84
2023/03/06 10:44:23;;;;;;;;;;;6.60;52.20;;;4.86;55.39;100019.88;12255136;19;19932;-85
2023/03/06 10:48:27;;;;;;;;;;;6.50;52.10;;;4.95;55.37;100036.75;12261686;19;19919;-85
2023/03/06 10:52:33;;;;;;;;;;;6.60;52.20;;;4.97;55.25;100035.78;12258346;19;20263;-85
2023/03/06 10:56:38;;;;;;;;;;;6.60;52.20;;;4.77;55.47;99999.59;12259688;19;19941;-86
2023/03/06 11:00:39;;;;;;;;;;;6.70;52.30;;;4.87;55.42;100019.81;12256152;19;19915;-86
2023/03/06 11:04:45;;;;;;;;;;;6.50;52.20;;;4.99;55.32;100038.28;12255082;19;20323;-86
2023/03/06 11:08:46;;;;;;;;;;;6.80;52.30;;;4.59;55.13;99980.50;12255422;19;19947;-86
2023/03/06 11:13:22;;;;;;;;;;;6.70;52.30;;;4.92;55.24;100026.56;12253816;19;20415;-87
2023/03/06 11:17:28;;;;;;;;;;;6.60;52.20;;;4.84;55.42;100014.78;12256915;19;19926;-85
2023/03/06 11:21:32;;;;;;;;;;;6.60;52.30;;;4.89;55.45;100022.34;12254025;19;19926;-85
2023/03/06 11:25:41;;;;;;;;;;;6.70;52.30;;;4.96;55.46;100036.69;12254561;19;19926;-86
2023/03/06 11:29:45;;;;;;;;;;;6.50;52.30;;;4.97;55.25;100032.34;12253861;19;19935;-86
2023/03/06 11:33:55;;;;;;;;;;;6.50;52.30;;;5.02;55.46;100035.56;12249375;19;19918;-87
2023/03/06 11:38:03;;;;;;;;;;;6.60;52.30;;;4.63;55.48;99963.97;12253120;19;19918;-86
2023/03/06 11:42:18;;;;;;;;;;;6.60;52.30;;;5.01;55.48;100028.72;12252013;19;19911;-86
2023/03/06 11:46:23;;;;;;;;;;;6.60;52.30;;;5.01;55.29;100021.81;12251844;19;20320;-86
2023/03/06 11:50:34;;;;;;;;;;;6.60;52.70;;;4.71;55.44;99974.81;12252851;19;19942;-86
2023/03/06 11:54:36;;;;;;;;;;;6.60;52.40;;;4.89;55.32;100001.66;12248260;19;19922;-86
2023/03/06 11:59:02;;;;;;;;;;;6.50;52.30;;;4.98;55.38;100015.94;12251844;19;19946;-86
2023/03/06 12:03:30;;;;;;;;;;;6.50;52.30;;;4.90;55.43;99998.16;12252424;19;19940;-85
2023/03/06 12:07:49;;;;;;;;;;;6.50;52.30;;;5.02;55.41;100010.56;12254483;19;19996;-85
2023/03/06 12:12:22;;;;;;;;;;;6.80;52.50;;;5.05;55.59;100006.97;12254821;19;20016;-86
2023/03/06 12:16:48;;;;;;;;;;;6.60;52.30;;;5.03;55.36;100004.47;12254340;19;20241;-86
2023/03/06 12:21:14;;;;;;;;;;;6.60;52.30;;;5.05;55.56;100006.97;12248161;19;19915;-86
2023/03/06 12:25:18;;;;;;;;;;;6.60;52.40;;;5.07;55.69;100000.81;12250555;19;19926;-85
2023/03/06 12:29:38;;;;;;;;;;;6.60;52.40;;;5.10;55.44;100005.88;12255609;19;19915;-86
2023/03/06 12:33:52;;;;;;;;;;;6.70;52.40;;;5.13;55.42;99994.56;12253514;19;19930;-86
2023/03/06 12:38:02;;;;;;;;;;;6.70;52.40;;;5.17;55.48;99992.66;12251525;19;19915;-86
2023/03/06 12:42:09;;;;;;;;;;;6.70;52.40;;;5.18;55.62;99994.34;12253815;19;19923;-85
2023/03/06 12:46:16;;;;;;;;;;;6.70;52.30;;;5.17;55.51;99993.50;12251615;19;19934;-86
2023/03/06 12:50:29;;;;;;;;;;;6.80;52.40;;;5.22;55.54;99998.47;12251952;19;20281;-86
2023/03/06 12:54:35;;;;;;;;;;;6.80;52.30;;;5.20;55.63;99989.94;12248999;19;19932;-86
2023/03/06 12:58:56;;;;;;;;;;;6.80;52.30;;;5.24;55.63;99989.75;12248908;19;20458;-86
2023/03/06 13:03:13;;;;;;;;;;;6.80;52.30;;;5.30;55.68;99992.03;12227545;19;20196;-85
2023/03/06 13:07:47;;;;;;;;;;;6.90;52.30;;;5.27;55.54;99979.25;12244174;19;19922;-86
2023/03/06 13:12:07;;;;;;;;;;;6.90;52.30;;;5.36;55.56;99984.91;12226915;19;19918;-86
2023/03/06 13:16:17;;;;;;;;;;;6.90;52.40;;;5.38;55.66;99991.69;12251395;19;19936;-86
2023/03/06 13:20:27;;;;;;;;;;;7.00;52.30;;;5.39;55.52;99993.38;12247479;19;19915;-86
2023/03/06 13:24:33;;;;;;;;;;;7.00;52.30;;;5.36;55.69;99977.97;12249395;19;20248;-87
2023/03/06 13:28:40;;;;;;;;;;;7.00;52.30;;;5.45;55.67;99987.06;12251156;19;19922;-85
2023/03/06 13:32:42;;;;;;;;;;;7.00;52.30;;;5.22;55.61;99937.19;12249888;19;19915;-86
2023/03/06 13:36:43;;;;;;;;;;;7.10;52.30;;;5.27;55.61;99934.41;12249584;19;19923;-86
2023/03/06 13:40:45;;;;;;;;;;;7.10;52.30;;;5.44;55.72;99952.56;12248740;19;19926;-86
2023/03/06 13:44:48;;;;;;;;;;;7.10;52.20;;;5.47;55.54;99967.97;12250854;19;19993;-86
2023/03/06 13:49:08;;;;;;;;;;;7.20;52.20;;;5.58;55.74;99970.06;12250159;19;19922;-86
2023/03/06 13:53:37;;;;;;;;;;;7.20;52.30;;;5.62;55.87;99969.00;12249986;19;19915;-87
2023/03/06 13:57:45;;;;;;;;;;;7.20;52.20;;;5.66;55.60;99962.75;12245863;19;19934;-87
2023/03/06 14:02:24;;;;;;;;;;;7.30;52.40;;;5.67;55.70;99961.88;12247532;19;19926;-89
2023/03/06 14:06:36;;;;;;;;;;;7.30;52.30;;;5.70;55.74;99959.13;12247739;19;20269;-86
2023/03/06 14:10:37;;;;;;;;;;;7.30;52.20;;;5.71;55.54;99959.97;12251322;19;19934;-86
2023/03/06 14:14:42;;;;;;;;;;;7.40;52.20;;;5.45;55.45;99918.00;12249741;19;19907;-86
2023/03/06 14:18:46;;;;;;;;;;;7.30;52.10;;;5.70;55.68;99948.78;12247804;19;19918;-86
2023/03/06 14:22:47;;;;;;;;;;;7.40;52.10;;;5.70;55.50;99946.19;12249693;19;19911;-86
2023/03/06 14:26:50;;;;;;;;;;;7.40;52.10;;;5.73;55.67;99938.25;12251512;19;19955;-86
2023/03/06 14:30:54;;;;;;;;;;;7.40;52.00;;;5.71;55.52;99934.06;12250992;19;19907;-86
2023/03/06 14:34:55;;;;;;;;;;;7.40;52.00;;;5.72;55.69;99936.56;12247059;19;19938;-86
2023/03/06 14:39:03;;;;;;;;;;;7.40;52.00;;;5.82;55.63;99938.72;12247507;19;20314;-86
2023/03/06 14:43:26;;;;;;;;;;;7.50;52.00;;;5.71;55.69;99916.75;12251192;19;19935;-85
2023/03/06 14:47:33;;;;;;;;;;;7.50;52.00;;;5.85;55.58;99939.41;12261549;19;19937;-85
2023/03/06 14:51:44;;;;;;;;;;;7.50;52.10;;;5.85;55.67;99936.00;12263128;19;19929;-86
2023/03/06 14:55:55;;;;;;;;;;;7.50;51.90;;;5.87;55.55;99940.19;12258467;19;19907;-86
2023/03/06 14:59:58;;;;;;;;;;;7.50;51.90;;;5.88;55.54;99939.25;12250044;19;19935;-86
2023/03/06 15:04:00;;;;;;;;;;;7.60;51.90;;;5.85;55.68;99921.28;12251337;19;19915;-86
2023/03/06 15:08:06;;;;;;;;;;;7.60;52.00;;;5.77;55.46;99910.44;12253255;19;20658;-86
2023/03/06 15:12:19;;;;;;;;;;;7.60;51.90;;;6.02;55.65;99942.97;12254341;19;19926;-86
2023/03/06 15:16:25;;;;;;;;;;;7.70;52.00;;;5.96;55.54;99936.31;12260456;19;20344;-86
2023/03/06 15:20:42;;;;;;;;;;;7.70;52.00;;;5.96;55.48;99926.78;12257016;19;20329;-86
2023/03/06 15:24:44;;;;;;;;;;;7.60;51.90;;;5.97;55.57;99932.84;12259545;19;19925;-86
2023/03/06 15:28:54;;;;;;;;;;;7.70;52.00;;;5.92;55.64;99927.00;12260688;19;19907;-86
2023/03/06 15:33:16;;;;;;;;;;;7.80;52.00;;;6.05;55.59;99943.69;12259096;19;19944;-86
2023/03/06 15:37:25;;;;;;;;;;;7.70;51.90;;;6.03;55.46;99935.13;12260955;19;19911;-87
2023/03/06 15:41:37;;;;;;;;;;;7.70;51.90;;;6.09;55.46;99952.13;12258884;19;19915;-87
2023/03/06 15:45:38;;;;;;;;;;;7.70;51.90;;;5.90;55.41;99913.28;12257093;19;20360;-87
2023/03/06 15:49:40;;;;;;;;;;;7.70;51.90;;;6.02;55.54;99930.84;12255369;19;19914;-87
2023/03/06 15:53:42;;;;;;;;;;;7.70;51.90;;;6.08;55.40;99948.69;12252685;19;19936;-87
2023/03/06 15:58:01;;;;;;;;;;;7.70;51.90;;;6.11;55.51;99948.53;12257281;19;19911;-86
2023/03/06 16:02:12;;;;;;;;;;;7.70;51.80;;;6.14;55.50;99953.56;12252404;19;19930;-87
2023/03/06 16:06:19;;;;;;;;;;;7.80;52.00;;;5.84;55.49;99888.53;12258300;19;19911;-87
2023/03/06 16:10:26;;;;;;;;;;;7.80;51.90;;;6.15;55.47;99944.88;12260673;19;19936;-86
2023/03/06 16:14:28;;;;;;;;;;;7.80;51.80;;;6.06;55.47;99934.97;12255456;19;19935;-86
2023/03/06 16:18:30;;;;;;;;;;;7.80;51.80;;;5.88;55.22;99905.56;12251527;19;19925;-87
2023/03/06 16:22:32;;;;;;;;;;;7.80;51.70;;;5.53;55.39;99853.72;12253929;19;19945;-89
2023/03/06 16:26:34;;;;;;;;;;;7.70;51.70;;;5.55;55.26;99861.44;12251275;19;19943;-88
2023/03/06 16:30:37;;;;;;;;;;;7.70;51.70;;;5.67;55.40;99879.00;12252852;19;19911;-87
2023/03/06 16:34:38;;;;;;;;;;;7.50;51.70;;;5.63;55.41;99880.03;12249851;19;19919;-88
2023/03/06 16:38:40;;;;;;;;;;;7.60;51.70;;;5.80;55.41;99896.50;12251366;19;19922;-86
2023/03/06 16:42:42;;;;;;;;;;;7.60;51.70;;;5.46;55.18;99851.53;12251713;19;19918;-87
2023/03/06 16:46:46;;;;;;;;;;;7.60;51.80;;;5.72;55.39;99896.88;12254545;19;19922;-87
2023/03/06 16:50:47;;;;;;;;;;;7.60;51.70;;;5.56;55.23;99883.81;12253365;19;19939;-87
2023/03/06 16:54:49;;;;;;;;;;;7.60;51.70;;;5.92;55.39;99943.38;12246491;19;19927;-87
2023/03/06 16:58:51;;;;;;;;;;;7.50;51.70;;;5.44;55.14;99872.31;12252724;19;19919;-87
2023/03/06 17:02:53;;;;;;;;;;;7.70;51.80;;;5.40;55.32;99872.53;12251993;19;19925;-87
2023/03/06 17:06:55;;;;;;;;;;;7.40;51.70;;;5.42;55.32;99892.25;12253591;19;19995;-87
2023/03/06 17:10:56;;;;;;;;;;;7.40;51.60;;;5.69;55.27;99941.91;12251722;19;20245;-87
2023/03/06 17:14:58;;;;;;;;;;;7.40;51.70;;;5.70;55.37;99956.53;12250651;19;19950;-88
2023/03/06 17:19:01;;;;;;;;;;;7.30;51.60;;;5.29;55.20;99902.38;12253027;19;19923;-88
2023/03/06 17:23:02;;;;;;;;;;;7.20;51.60;;;5.44;55.30;99946.56;12252259;19;19970;-87
2023/03/06 17:27:04;;;;;;;;;;;7.10;51.60;;;5.49;55.25;99973.09;12251111;19;19923;-87
2023/03/06 17:31:26;;;;;;;;;;;7.10;51.60;;;5.46;55.29;99988.78;12249351;19;20253;-87
2023/03/06 17:35:28;;;;;;;;;;;7.00;51.60;;;5.27;55.27;99961.13;12250088;19;19907;-87
2023/03/06 17:39:36;;;;;;;;;;;7.00;51.60;;;5.29;55.15;99971.38;12250824;19;19919;-87
2023/03/06 17:43:38;;;;;;;;;;;6.90;51.60;;;5.23;55.04;99975.09;12247569;19;19922;-87
2023/03/06 17:47:40;;;;;;;;;;;6.80;51.50;;;5.17;55.13;99970.22;12247870;19;19982;-87
2023/03/06 17:51:42;;;;;;;;;;;6.80;51.60;;;5.09;55.21;99972.31;12251832;19;19919;-87
2023/03/06 17:55:43;;;;;;;;;;;6.70;51.50;;;5.05;55.08;99971.63;12251474;19;19915;-87
2023/03/06 17:59:47;;;;;;;;;;;6.70;51.60;;;5.09;55.08;99977.47;12247647;19;19940;-87
2023/03/06 18:03:49;;;;;;;;;;;6.70;51.60;;;4.94;55.05;99967.81;12245911;19;19919;-87
2023/03/06 18:07:51;;;;;;;;;;;6.60;51.50;;;4.96;55.24;99976.34;12246078;19;20378;-87
2023/03/06 18:11:52;;;;;;;;;;;6.60;51.60;;;4.94;55.12;99989.38;12250505;19;19915;-88
2023/03/06 18:15:54;;;;;;;;;;;6.50;51.50;;;4.88;54.99;99984.44;12249979;19;19929;-87
2023/03/06 18:19:55;;;;;;;;;;;6.50;51.50;;;4.93;55.16;99992.00;12257571;19;19950;-87
2023/03/06 18:23:57;;;;;;;;;;;6.50;51.60;;;4.89;55.05;99988.72;12257344;19;19923;-87
2023/03/06 18:27:58;;;;;;;;;;;6.40;51.60;;;4.82;55.02;99984.72;12259044;19;19922;-87
2023/03/06 18:32:00;;;;;;;;;;;6.60;51.60;;;4.56;55.12;99947.03;12260628;19;19911;-87
2023/03/06 18:36:03;;;;;;;;;;;6.30;51.50;;;4.51;54.95;99944.66;12261038;19;19918;-86
2023/03/06 18:40:05;;;;;;;;;;;6.30;51.40;;;4.57;55.01;99972.00;12254876;19;19941;-87
2023/03/06 18:44:07;;;;;;;;;;;6.30;51.40;;;4.59;55.05;99989.13;12255411;19;20257;-87
2023/03/06 18:48:08;;;;;;;;;;;6.30;51.30;;;4.54;55.07;99992.81;12259170;19;20344;-87
2023/03/06 18:52:11;;;;;;;;;;;6.10;51.20;;;4.35;54.93;99972.06;12257845;19;20002;-87
2023/03/06 18:56:19;;;;;;;;;;;6.00;51.10;;;4.32;54.85;99985.97;12258352;19;20270;-86